ROMMA est une association bénévole à but non lucratif. Votre soutien est indispensable : ADHERER à ROMMA ou FAIRE un DON

Briord - (01, Ain)

Bugey (281 m)   Longitude: 05° 29' 13" E   Latitude: 45° 46' 37" N Station partenaire n°15
 

Détail journalier du     <<     >>

Température Precipitation Humidité Pression Vent Dir Rafale Dir. rafale Ensol.
Heure (°C) (mm) (%) (hPa) (km/h) (km/h) (min)
01:00 -2.2095102600---0
02:00 -2.3094102600---0
03:00 -1.9095102600---0
04:00 -2.1095102500---0
05:00 -2.4095102500---0
06:00 -2.1095102500---0
07:00 -2.3095102500---0
08:00 -2.7094102500---0
09:00 -2.6095102500---0
10:00 -1.0095102600---35
11:00 0.30.295102600---35
12:00 1.3095102500---10
13:00 4.7095102400---50
14:00 7.3088102300---60
15:00 9.2081102200---60
16:00 6.9087102200---60
17:00 3.6090102200---25
18:00 2.1092102200---0
19:00 1.9092102200---0
20:00 1.3093102200---0
21:00 1.6093102200---0
22:00 2.1094102200---0
23:00 2.4093102200---0
minuit 2.9094102200---0

Graphique du 06-12-2019

 

Serveur OMMA